Time;durP1;ratioP1;P1;durP2;ratioP2;P2;SDS_P1;SDS_P2;PMS_P1;PMS_P2;Temp;Humidity;BMP_temperature;BMP_pressure;BME280_temperature;BME280_humidity;BME280_pressure;Samples;Min_cycle;Max_cycle;Signal;HPM_P1;HPM_P2
2023/08/19 00:00:15;;;;;;;27.65;25.15;;;19.70;1.00;;;;;;5013220;28;20544;-75
2023/08/19 00:02:42;;;;;;;31.20;28.23;;;19.70;1.00;;;;;;5011650;28;20218;-76
2023/08/19 00:05:08;;;;;;;31.58;28.60;;;19.70;1.00;;;;;;5014976;28;20255;-75
2023/08/19 00:07:35;;;;;;;30.52;27.50;;;19.60;25.60;;;;;;5016568;28;20167;-75
2023/08/19 00:10:03;;;;;;;31.17;28.25;;;19.70;1.00;;;;;;5016584;28;20204;-75
2023/08/19 00:12:29;;;;;;;30.27;27.40;;;19.60;1.00;;;;;;5016473;28;20176;-76
2023/08/19 00:14:55;;;;;;;29.65;26.95;;;19.60;8.20;;;;;;5016074;28;20577;-75
2023/08/19 00:17:22;;;;;;;29.00;26.38;;;19.60;91.50;;;;;;5016451;28;20206;-75
2023/08/19 00:19:48;;;;;;;30.35;27.65;;;19.60;99.90;;;;;;5016462;28;20203;-75
2023/08/19 00:22:14;;;;;;;33.05;29.88;;;19.60;99.90;;;;;;5016319;28;20176;-75
2023/08/19 00:24:40;;;;;;;33.95;30.75;;;19.60;99.90;;;;;;5016038;28;20223;-76
2023/08/19 00:27:06;;;;;;;36.08;32.60;;;19.60;99.90;;;;;;5016172;28;20172;-76
2023/08/19 00:29:32;;;;;;;37.33;33.83;;;19.60;1.00;;;;;;5016349;28;20184;-75
2023/08/19 00:31:57;;;;;;;34.95;31.65;;;19.60;1.00;;;;;;5016364;28;20168;-75
2023/08/19 00:34:23;;;;;;;38.97;35.25;;;19.60;1.00;;;;;;5016138;28;20191;-76
2023/08/19 00:36:48;;;;;;;36.13;32.38;;;19.50;1.00;;;;;;5015589;28;20172;-75
2023/08/19 00:39:14;;;;;;;42.30;38.10;;;19.50;1.00;;;;;;5016112;28;20262;-75
2023/08/19 00:41:40;;;;;;;35.97;32.47;;;19.50;1.00;;;;;;5015953;28;20207;-75
2023/08/19 00:44:06;;;;;;;40.65;36.63;;;19.60;1.00;;;;;;5015896;28;20199;-75
2023/08/19 00:46:32;;;;;;;39.35;35.42;;;19.60;1.00;;;;;;5015298;28;20175;-76
2023/08/19 00:49:00;;;;;;;38.53;34.75;;;19.60;1.00;;;;;;5015696;28;20609;-75
2023/08/19 00:51:26;;;;;;;43.47;39.22;;;19.70;1.00;;;;;;5015754;28;20171;-75
2023/08/19 00:53:52;;;;;;;41.90;37.47;;;19.70;99.90;;;;;;5015543;28;20203;-75
2023/08/19 00:56:18;;;;;;;41.55;37.33;;;19.70;99.90;;;;;;5015298;28;20586;-75
2023/08/19 00:58:44;;;;;;;42.33;38.13;;;19.70;99.90;;;;;;5110945;22;20774;-75
2023/08/19 01:01:10;;;;;;;37.20;33.70;;;19.60;99.90;;;;;;5035493;28;20194;-75
2023/08/19 01:03:36;;;;;;;40.40;36.33;;;19.60;99.90;;;;;;5035489;28;20191;-75
2023/08/19 01:06:06;;;;;;;37.15;33.42;;;19.60;99.90;;;;;;5034838;28;20206;-75
2023/08/19 01:08:53;;;;;;;42.67;38.38;;;19.60;99.90;;;;;;5035327;28;20586;-75
2023/08/19 01:11:57;;;;;;;37.10;33.40;;;19.50;99.90;;;;;;5035298;28;20213;-75
2023/08/19 01:14:39;;;;;;;41.97;37.80;;;19.50;1.00;;;;;;4954812;29;20241;-75
2023/08/19 01:17:10;;;;;;;39.22;35.40;;;19.40;1.00;;;;;;4953669;28;20314;-75
2023/08/19 01:19:36;;;;;;;38.20;34.47;;;19.40;1.00;;;;;;5004221;28;20183;-75
2023/08/19 01:22:05;;;;;;;38.03;34.33;;;19.40;1.00;;;;;;5035195;28;20163;-75
2023/08/19 01:24:35;;;;;;;35.78;32.25;;;19.40;1.00;;;;;;5034851;28;20199;-75
2023/08/19 01:27:05;;;;;;;38.53;34.75;;;19.40;1.00;;;;;;5034323;28;20167;-75
2023/08/19 01:29:31;;;;;;;39.20;35.40;;;19.40;1.00;;;;;;5034894;28;20175;-75
2023/08/19 01:31:57;;;;;;;35.83;32.33;;;19.30;1.00;;;;;;5035231;28;20293;-75
2023/08/19 01:34:24;;;;;;;36.40;32.92;;;19.40;1.00;;;;;;5034717;28;20624;-75
2023/08/19 01:36:57;;;;;;;38.05;34.33;;;19.40;1.00;;;;;;5034159;28;20171;-76
2023/08/19 01:39:25;;;;;;;39.90;36.00;;;19.40;1.00;;;;;;5034727;28;20571;-75
2023/08/19 01:41:51;;;;;;;37.28;33.75;;;19.40;1.00;;;;;;5034589;28;20210;-75
2023/08/19 01:44:17;;;;;;;40.25;36.47;;;19.40;1.00;;;;;;5034438;28;20636;-75
2023/08/19 01:46:43;;;;;;;40.72;36.85;;;19.30;1.00;;;;;;5033994;28;20186;-75
2023/08/19 01:49:09;;;;;;;41.72;37.70;;;19.30;1.00;;;;;;5034678;28;20175;-75
2023/08/19 01:51:34;;;;;;;39.33;35.67;;;19.30;1.00;;;;;;5034497;28;20174;-75
2023/08/19 01:54:00;;;;;;;36.58;33.17;;;19.30;1.00;;;;;;5034246;28;20269;-75
2023/08/19 01:56:25;;;;;;;39.03;35.42;;;19.30;1.00;;;;;;5016120;28;20187;-75
2023/08/19 01:58:51;;;;;;;40.17;36.20;;;19.30;1.00;;;;;;5016540;28;20606;-75
2023/08/19 02:01:17;;;;;;;38.78;35.08;;;19.40;1.00;;;;;;5034389;28;20252;-75
2023/08/19 02:03:42;;;;;;;36.97;33.60;;;19.40;1.00;;;;;;5016424;28;20226;-75
2023/08/19 02:06:08;;;;;;;39.83;36.03;;;19.40;1.00;;;;;;5033623;28;20215;-75
2023/08/19 02:08:34;;;;;;;37.08;33.70;;;19.40;1.00;;;;;;5034117;28;20175;-75
2023/08/19 02:10:59;;;;;;;37.38;33.78;;;19.40;1.00;;;;;;5016496;28;20179;-75
2023/08/19 02:13:25;;;;;;;35.58;32.28;;;19.40;1.00;;;;;;5033989;28;20237;-75
2023/08/19 02:15:50;;;;;;;35.13;31.63;;;19.40;1.00;;;;;;5033539;28;20175;-75
2023/08/19 02:18:18;;;;;;;34.38;31.23;;;19.30;1.00;;;;;;5034031;28;20183;-75
2023/08/19 02:20:47;;;;;;;35.08;31.85;;;19.30;1.00;;;;;;5034022;28;20282;-75
2023/08/19 02:23:13;;;;;;;32.42;29.42;;;19.20;1.00;;;;;;5033569;28;20190;-75
2023/08/19 02:25:38;;;;;;;35.17;31.88;;;19.20;1.00;;;;;;5033301;28;20214;-75
2023/08/19 02:28:04;;;;;;;35.45;32.15;;;19.20;1.00;;;;;;5033836;28;20195;-75
2023/08/19 02:30:33;;;;;;;34.25;31.05;;;19.20;1.00;;;;;;5033745;28;20201;-75
2023/08/19 02:33:06;;;;;;;36.63;33.33;;;19.20;1.00;;;;;;5033541;28;20190;-75
2023/08/19 02:35:31;;;;;;;38.85;35.05;;;19.20;1.00;;;;;;5033343;28;20626;-75
2023/08/19 02:37:57;;;;;;;36.55;33.05;;;19.30;1.00;;;;;;5033713;28;20183;-75
2023/08/19 02:40:23;;;;;;;37.70;34.00;;;19.30;1.00;;;;;;5033702;28;20280;-75
2023/08/19 02:42:48;;;;;;;34.25;31.13;;;19.30;1.00;;;;;;5033439;28;20171;-75
2023/08/19 02:45:14;;;;;;;38.45;34.65;;;19.30;1.00;;;;;;5033300;28;20630;-75
2023/08/19 02:47:40;;;;;;;38.63;34.78;;;19.30;1.00;;;;;;5033463;28;20167;-75
2023/08/19 02:50:06;;;;;;;43.08;38.90;;;19.20;99.90;;;;;;5033623;28;20176;-75
2023/08/19 02:52:32;;;;;;;37.53;33.92;;;19.20;1.00;;;;;;5033220;28;20185;-75
2023/08/19 02:54:57;;;;;;;43.05;38.78;;;19.20;1.00;;;;;;5032884;28;20289;-74
2023/08/19 02:57:23;;;;;;;40.33;36.22;;;19.20;1.00;;;;;;5015690;28;20185;-74
2023/08/19 02:59:48;;;;;;;43.42;38.97;;;19.20;1.00;;;;;;5033346;28;20190;-75
2023/08/19 03:02:14;;;;;;;44.15;39.72;;;19.30;1.00;;;;;;5033548;28;20175;-75
2023/08/19 03:04:43;;;;;;;45.05;40.55;;;19.30;1.00;;;;;;5033259;28;20187;-75
2023/08/19 03:07:08;;;;;;;45.17;40.60;;;19.30;1.00;;;;;;5033090;28;20622;-75
2023/08/19 03:09:34;;;;;;;46.05;41.38;;;19.30;99.90;;;;;;5033442;28;20182;-74
2023/08/19 03:11:59;;;;;;;44.83;40.13;;;19.20;99.90;;;;;;5033267;28;20182;-74
2023/08/19 03:14:25;;;;;;;41.85;37.42;;;19.10;1.00;;;;;;5033236;28;20292;-75
2023/08/19 03:16:51;;;;;;;45.63;41.03;;;19.10;1.00;;;;;;5032716;28;20657;-75
2023/08/19 03:19:16;;;;;;;45.35;40.65;;;19.10;1.00;;;;;;5033386;28;20186;-75
2023/08/19 03:21:42;;;;;;;42.95;38.63;;;19.10;1.00;;;;;;5032847;28;20194;-75
2023/08/19 03:24:08;;;;;;;39.25;35.42;;;19.10;1.00;;;;;;5032933;28;20564;-75
2023/08/19 03:26:34;;;;;;;42.38;37.80;;;19.10;99.90;;;;;;5032712;28;20205;-75
2023/08/19 03:28:59;;;;;;;42.60;38.35;;;19.10;99.90;;;;;;5033144;28;20177;-75
2023/08/19 03:31:25;;;;;;;41.22;37.33;;;19.00;1.00;;;;;;5033351;28;20198;-74
2023/08/19 03:33:53;;;;;;;41.25;37.03;;;19.00;1.00;;;;;;5032855;28;20195;-75
2023/08/19 03:36:19;;;;;;;40.20;36.20;;;19.00;1.00;;;;;;5032439;28;20201;-74
2023/08/19 03:38:44;;;;;;;39.15;35.35;;;19.00;1.00;;;;;;5033360;28;20253;-75
2023/08/19 03:41:10;;;;;;;38.67;34.83;;;19.00;1.00;;;;;;5037043;28;20229;-74
2023/08/19 03:43:35;;;;;;;40.85;36.75;;;19.00;1.00;;;;;;5036733;28;20191;-75
2023/08/19 03:46:01;;;;;;;41.65;37.45;;;19.00;1.00;;;;;;5036239;28;20175;-75
2023/08/19 03:48:27;;;;;;;41.97;37.67;;;19.00;1.00;;;;;;5036904;28;20220;-75
2023/08/19 03:50:52;;;;;;;43.88;39.45;;;19.00;1.00;;;;;;5036710;28;20266;-74
2023/08/19 03:53:18;;;;;;;39.10;35.08;;;19.00;1.00;;;;;;5036652;28;20584;-75
2023/08/19 03:55:44;;;;;;;44.20;39.63;;;19.00;1.00;;;;;;5036156;28;20175;-75
2023/08/19 03:58:09;;;;;;;38.95;35.03;;;19.00;99.90;;;;;;5036669;28;20213;-75
2023/08/19 04:00:35;;;;;;;42.90;38.50;;;18.90;99.90;;;;;;5036658;28;20284;-74
2023/08/19 04:03:01;;;;;;;42.65;38.25;;;18.90;99.90;;;;;;5036357;28;20195;-75
2023/08/19 04:05:26;;;;;;;39.92;35.85;;;18.90;99.90;;;;;;5035966;28;20233;-74
2023/08/19 04:07:52;;;;;;;42.00;37.63;;;18.90;99.90;;;;;;5036343;28;20182;-75
2023/08/19 04:10:17;;;;;;;41.53;37.25;;;18.80;1.00;;;;;;5036635;28;20595;-75
2023/08/19 04:12:43;;;;;;;46.90;42.10;;;18.80;1.00;;;;;;5036125;28;20210;-74
2023/08/19 04:15:10;;;;;;;48.83;43.72;;;18.90;1.00;;;;;;5035887;28;20179;-75
2023/08/19 04:17:36;;;;;;;41.70;37.38;;;18.90;1.00;;;;;;5036277;28;20175;-74
2023/08/19 04:20:07;;;;;;;47.70;42.78;;;18.90;1.00;;;;;;5018380;28;20203;-74
2023/08/19 04:22:33;;;;;;;44.78;40.13;;;18.90;1.00;;;;;;5036183;28;20171;-75
2023/08/19 04:24:59;;;;;;;46.00;41.25;;;18.90;1.00;;;;;;5035518;28;20191;-75
2023/08/19 04:27:24;;;;;;;46.05;41.22;;;19.00;1.00;;;;;;5036228;28;20622;-75
2023/08/19 04:29:50;;;;;;;45.55;40.88;;;19.00;1.00;;;;;;5036034;28;20249;-74
2023/08/19 04:32:16;;;;;;;44.20;39.55;;;19.00;1.00;;;;;;5036024;28;20171;-75
2023/08/19 04:34:41;;;;;;;42.97;38.45;;;19.00;99.90;;;;;;5035475;28;20245;-74
2023/08/19 04:37:08;;;;;;;44.55;40.13;;;19.00;99.90;;;;;;5035700;28;20155;-75
2023/08/19 04:39:34;;;;;;;44.92;40.30;;;19.00;99.90;;;;;;5035942;28;20175;-74
2023/08/19 04:42:00;;;;;;;41.80;37.67;;;19.00;99.90;;;;;;5035727;28;20761;-74
2023/08/19 04:44:25;;;;;;;41.83;37.72;;;19.00;99.90;;;;;;5018219;28;20249;-75
2023/08/19 04:46:51;;;;;;;41.22;37.15;;;19.00;99.90;;;;;;5035149;28;20201;-75
2023/08/19 04:49:16;;;;;;;39.10;35.30;;;19.00;99.90;;;;;;5035714;28;20171;-74
2023/08/19 04:51:42;;;;;;;42.95;38.65;;;19.00;99.90;;;;;;5034491;28;20254;-75
2023/08/19 04:54:08;;;;;;;41.05;36.85;;;19.00;99.90;;;;;;5035375;28;20209;-74
2023/08/19 04:56:34;;;;;;;43.65;39.42;;;19.10;99.90;;;;;;5034975;28;20257;-75
2023/08/19 04:59:00;;;;;;;40.80;36.80;;;19.10;99.90;;;;;;5035564;28;20229;-75
2023/08/19 05:01:27;;;;;;;47.28;39.95;;;19.20;99.90;;;;;;5035577;28;20222;-74
2023/08/19 05:03:53;;;;;;;44.30;40.03;;;19.10;99.90;;;;;;5035205;28;20199;-75
2023/08/19 05:06:19;;;;;;;42.58;38.28;;;19.20;1.00;;;;;;5035026;28;20206;-74
2023/08/19 05:08:45;;;;;;;43.92;39.53;;;19.30;1.00;;;;;;5035364;28;20206;-75
2023/08/19 05:11:10;;;;;;;44.88;40.42;;;19.30;1.00;;;;;;5035515;28;20543;-74
2023/08/19 05:13:36;;;;;;;45.50;40.88;;;19.30;1.00;;;;;;5035313;28;20196;-74
2023/08/19 05:16:02;;;;;;;40.13;36.03;;;19.40;1.00;;;;;;5034649;28;20225;-75
2023/08/19 05:18:28;;;;;;;43.65;39.35;;;19.40;1.00;;;;;;5017377;28;20183;-74
2023/08/19 05:20:53;;;;;;;41.85;37.65;;;19.50;1.00;;;;;;5035117;28;20250;-74
2023/08/19 05:23:19;;;;;;;42.67;38.45;;;19.60;1.00;;;;;;5034932;28;20249;-75
2023/08/19 05:25:44;;;;;;;39.08;35.17;;;19.80;1.00;;;;;;5034578;28;20237;-74
2023/08/19 05:28:11;;;;;;;33.88;30.70;;;20.50;99.90;;;;;;5034426;28;20660;-74
2023/08/19 05:30:37;;;;;;;33.30;30.10;;;21.80;99.90;;;;;;5034666;28;20182;-75
2023/08/19 05:33:07;;;;;;;26.95;24.42;;;22.90;1.00;;;;;;5016451;28;20234;-75
2023/08/19 05:35:32;;;;;;;29.55;26.77;;;23.50;99.90;;;;;;5016339;28;20272;-75
2023/08/19 05:37:59;;;;;;;26.92;24.52;;;24.00;1.00;;;;;;5034835;28;20210;-75
2023/08/19 05:40:24;;;;;;;29.20;26.52;;;24.50;1.00;;;;;;5034812;28;20191;-73
2023/08/19 05:42:50;;;;;;;27.20;24.67;;;24.50;1.00;;;;;;5034459;28;20186;-74
2023/08/19 05:45:16;;;;;;;32.25;29.23;;;24.30;1.00;;;;;;5034162;28;20177;-75
2023/08/19 05:47:41;;;;;;;31.65;28.75;;;24.00;1.00;;;;;;5034159;28;20183;-74
2023/08/19 05:50:07;;;;;;;31.17;28.45;;;23.60;1.00;;;;;;5034325;28;20167;-74
2023/08/19 05:52:33;;;;;;;32.55;29.55;;;23.20;1.00;;;;;;5033168;28;20183;-74
2023/08/19 05:54:59;;;;;;;31.85;28.95;;;23.30;1.00;;;;;;5032268;28;20278;-74
2023/08/19 05:57:24;;;;;;;33.17;30.15;;;23.30;1.00;;;;;;5033215;28;20638;-74
2023/08/19 05:59:50;;;;;;;31.35;28.40;;;23.60;1.00;;;;;;5033113;28;20262;-74
2023/08/19 06:02:16;;;;;;;32.97;29.88;;;23.90;1.00;;;;;;5032835;28;20633;-75
2023/08/19 06:04:42;;;;;;;31.90;28.98;;;24.40;1.00;;;;;;5015237;28;20198;-74
2023/08/19 06:07:09;;;;;;;31.10;28.40;;;25.10;99.90;;;;;;5033856;28;20228;-74
2023/08/19 06:09:34;;;;;;;29.50;26.83;;;25.30;1.00;;;;;;5034315;28;20183;-74
2023/08/19 06:12:02;;;;;;;32.83;29.88;;;25.10;99.90;;;;;;5034070;28;20175;-74
2023/08/19 06:14:27;;;;;;;31.15;28.35;;;25.10;99.90;;;;;;5016159;28;20194;-74
2023/08/19 06:16:53;;;;;;;27.50;24.90;;;25.00;99.90;;;;;;5015748;28;20191;-74
2023/08/19 06:19:19;;;;;;;25.60;23.30;;;26.40;98.50;;;;;;5034042;28;20183;-75
2023/08/19 06:21:44;;;;;;;21.45;19.60;;;28.00;1.00;;;;;;5034103;28;20207;-75
2023/08/19 06:24:10;;;;;;;21.23;19.42;;;29.50;1.00;;;;;;5033706;28;20213;-75
2023/08/19 06:26:35;;;;;;;20.55;18.73;;;30.00;1.00;;;;;;5033420;28;20171;-75
2023/08/19 06:29:02;;;;;;;20.35;18.60;;;31.00;1.00;;;;;;5033807;28;20181;-75
2023/08/19 06:31:28;;;;;;;18.60;17.10;;;31.50;1.00;;;;;;5033986;28;20687;-75
2023/08/19 06:33:54;;;;;;;18.67;17.23;;;32.20;99.90;;;;;;5033540;28;20202;-75
2023/08/19 06:36:25;;;;;;;18.77;17.27;;;32.50;99.90;;;;;;5033157;28;20179;-75
2023/08/19 06:39:18;;;;;;;17.33;15.82;;;32.60;99.90;;;;;;5030280;28;20618;-75
2023/08/19 06:41:48;;;;;;;18.70;17.30;;;32.50;99.90;;;;;;5053769;28;20193;-75
2023/08/19 06:44:15;;;;;;;17.23;15.93;;;31.60;99.90;;;;;;5053400;28;20221;-75
2023/08/19 06:46:42;;;;;;;16.38;14.98;;;32.00;99.90;;;;;;5052951;28;20633;-73
2023/08/19 06:49:08;;;;;;;17.63;16.15;;;33.00;99.90;;;;;;5053568;28;20200;-75
2023/08/19 06:51:37;;;;;;;18.60;17.05;;;33.10;99.90;;;;;;5033530;28;20722;-73
2023/08/19 06:54:03;;;;;;;18.85;17.08;;;31.80;99.90;;;;;;5021159;28;20221;-75
2023/08/19 06:57:04;;;;;;;17.67;16.23;;;31.70;99.90;;;;;;5014021;28;20541;-74
2023/08/19 06:59:38;;;;;;;16.40;15.10;;;31.00;99.90;;;;;;5015337;28;20286;-75
2023/08/19 07:02:05;;;;;;;17.63;16.05;;;31.80;99.90;;;;;;5028577;28;20248;-74
2023/08/19 07:04:32;;;;;;;16.77;15.38;;;32.30;99.90;;;;;;5032984;28;20285;-74
2023/08/19 07:07:00;;;;;;;16.40;15.00;;;31.60;99.90;;;;;;5027886;28;20183;-74
2023/08/19 07:09:26;;;;;;;15.05;13.95;;;32.30;99.90;;;;;;5030943;28;20542;-73
2023/08/19 07:11:56;;;;;;;15.35;14.15;;;32.50;99.90;;;;;;5029869;28;20217;-74
2023/08/19 07:14:24;;;;;;;16.98;15.60;;;33.30;99.90;;;;;;5016451;28;20230;-74
2023/08/19 07:16:51;;;;;;;16.73;15.43;;;31.20;99.90;;;;;;5034407;28;20167;-73
2023/08/19 07:19:27;;;;;;;17.70;16.20;;;29.50;99.90;;;;;;5035644;28;20182;-74
2023/08/19 07:21:55;;;;;;;18.23;16.70;;;28.30;99.90;;;;;;5018851;28;20234;-74
2023/08/19 07:24:22;;;;;;;18.80;17.08;;;27.40;99.90;;;;;;5035343;28;20298;-73
2023/08/19 07:26:48;;;;;;;17.00;15.43;;;26.80;99.90;;;;;;5030514;28;20290;-74
2023/08/19 07:29:15;;;;;;;18.48;16.98;;;26.50;99.90;;;;;;5035149;28;20179;-73
2023/08/19 07:31:41;;;;;;;17.65;16.17;;;26.30;99.90;;;;;;5033087;28;20181;-73
2023/08/19 07:34:07;;;;;;;17.58;16.15;;;26.20;99.90;;;;;;5030654;28;20277;-73
2023/08/19 07:36:34;;;;;;;18.75;17.13;;;26.00;99.90;;;;;;5029786;28;20186;-73
2023/08/19 07:39:05;;;;;;;17.20;15.70;;;26.10;99.90;;;;;;5045710;23;20178;-81
2023/08/19 07:42:28;;;;;;;17.08;15.73;;;26.10;1.00;;;;;;5019480;28;20226;-81
2023/08/19 07:46:17;;;;;;;;;;;;;;;;;;;;;
2023/08/19 07:58:53;;;;;;;15.38;13.98;;;26.70;99.90;;;;;;5021646;23;20254;-73
2023/08/19 08:01:19;;;;;;;14.95;13.65;;;26.70;99.90;;;;;;5056510;28;20741;-72
2023/08/19 08:03:45;;;;;;;14.07;12.82;;;26.60;99.90;;;;;;5065379;28;20286;-74
2023/08/19 08:06:11;;;;;;;13.80;12.60;;;26.60;99.90;;;;;;5075742;28;20213;-68
2023/08/19 08:08:37;;;;;;;13.98;12.88;;;26.70;99.90;;;;;;5076588;28;20197;-69
2023/08/19 08:11:03;;;;;;;13.63;12.52;;;26.80;99.90;;;;;;5076091;28;20251;-70
2023/08/19 08:13:29;;;;;;;12.48;11.32;;;26.80;99.90;;;;;;5076203;28;20220;-71
2023/08/19 08:15:55;;;;;;;12.98;11.93;;;26.90;99.90;;;;;;5075886;28;20209;-70
2023/08/19 08:18:21;;;;;;;13.07;11.90;;;26.80;99.90;;;;;;5076507;28;20575;-72
2023/08/19 08:20:46;;;;;;;12.15;11.25;;;26.70;99.90;;;;;;5076476;28;20209;-71
2023/08/19 08:23:12;;;;;;;13.10;12.00;;;26.60;99.90;;;;;;5076040;28;20189;-70
2023/08/19 08:25:38;;;;;;;12.02;11.02;;;26.60;99.90;;;;;;5075081;28;20701;-72
2023/08/19 08:28:04;;;;;;;11.65;10.75;;;26.70;99.90;;;;;;5075990;28;20630;-68
2023/08/19 08:30:29;;;;;;;12.55;11.57;;;26.80;99.90;;;;;;5076082;28;20227;-70
2023/08/19 08:32:55;;;;;;;12.63;11.57;;;26.80;99.90;;;;;;5075802;28;20181;-73
2023/08/19 08:35:21;;;;;;;11.63;10.52;;;26.80;99.90;;;;;;5075218;28;20251;-69
2023/08/19 08:37:46;;;;;;;12.00;11.00;;;26.90;99.90;;;;;;5074224;28;20178;-69
2023/08/19 08:40:12;;;;;;;11.80;10.75;;;27.00;99.90;;;;;;5055921;28;20209;-72
2023/08/19 08:42:38;;;;;;;11.55;10.48;;;27.10;99.90;;;;;;5055937;28;20226;-71
2023/08/19 08:45:04;;;;;;;11.02;10.07;;;27.20;99.90;;;;;;5073283;28;20185;-70
2023/08/19 08:47:30;;;;;;;10.73;9.93;;;27.40;99.90;;;;;;5073868;28;20166;-69
2023/08/19 08:49:58;;;;;;;10.82;10.02;;;27.50;99.90;;;;;;5056147;28;20180;-71
2023/08/19 08:52:24;;;;;;;11.23;10.43;;;27.50;99.90;;;;;;5074993;28;20253;-72
2023/08/19 08:54:51;;;;;;;10.82;9.95;;;27.70;99.90;;;;;;5074905;28;20201;-69
2023/08/19 08:57:17;;;;;;;10.27;9.48;;;27.80;99.90;;;;;;5075371;28;20181;-72
2023/08/19 08:59:43;;;;;;;11.05;10.25;;;27.80;99.90;;;;;;5075623;28;20233;-70
2023/08/19 09:02:12;;;;;;;11.02;10.13;;;27.80;99.90;;;;;;5057368;28;20215;-70
2023/08/19 09:04:40;;;;;;;10.27;9.57;;;27.90;99.90;;;;;;5075252;28;20185;-69
2023/08/19 09:07:16;;;;;;;11.40;10.50;;;27.90;99.90;;;;;;5074839;28;20191;-72
2023/08/19 09:09:46;;;;;;;10.95;10.15;;;27.90;99.90;;;;;;5057617;28;20182;-71
2023/08/19 09:12:13;;;;;;;9.80;8.95;;;28.00;99.90;;;;;;5057214;28;20181;-71
2023/08/19 09:14:45;;;;;;;10.93;10.00;;;28.10;99.90;;;;;;5075112;28;20648;-73
2023/08/19 09:17:12;;;;;;;9.68;8.82;;;28.30;99.90;;;;;;5074904;28;20212;-72
2023/08/19 09:19:38;;;;;;;9.82;9.02;;;28.40;99.90;;;;;;5075095;28;20219;-71
2023/08/19 09:22:16;;;;;;;9.23;8.52;;;28.50;99.90;;;;;;5093280;28;20201;-70
2023/08/19 09:24:42;;;;;;;9.23;8.40;;;28.60;99.90;;;;;;5076100;28;20193;-74
2023/08/19 09:27:07;;;;;;;9.15;8.40;;;28.70;99.90;;;;;;5093477;28;20176;-74
2023/08/19 09:29:34;;;;;;;9.00;8.30;;;28.80;99.90;;;;;;5075838;28;20164;-73
2023/08/19 09:32:00;;;;;;;9.15;8.40;;;28.80;99.90;;;;;;5075639;28;20177;-74
2023/08/19 09:34:26;;;;;;;9.68;8.57;;;28.90;99.90;;;;;;5094096;28;20663;-73
2023/08/19 09:36:56;;;;;;;8.25;7.60;;;28.80;99.90;;;;;;5093660;28;20176;-74
2023/08/19 09:39:25;;;;;;;8.73;7.97;;;29.00;99.90;;;;;;5095046;28;20654;-74
2023/08/19 09:41:57;;;;;;;8.63;8.02;;;29.10;99.90;;;;;;5077151;28;20215;-74
2023/08/19 09:44:25;;;;;;;9.18;8.40;;;29.20;99.90;;;;;;5077139;28;20192;-74
2023/08/19 09:46:51;;;;;;;8.43;7.82;;;29.20;99.90;;;;;;5095154;28;20165;-74
2023/08/19 09:49:23;;;;;;;8.10;7.50;;;29.10;99.90;;;;;;5095348;28;20231;-74
2023/08/19 09:51:56;;;;;;;8.45;7.75;;;29.30;99.90;;;;;;5095341;28;20264;-74
2023/08/19 09:54:22;;;;;;;8.18;7.50;;;29.50;99.90;;;;;;5095109;28;20202;-74
2023/08/19 09:56:58;;;;;;;7.95;7.28;;;29.50;99.90;;;;;;5094683;28;20180;-73
2023/08/19 09:59:25;;;;;;;7.50;6.80;;;29.20;99.90;;;;;;5094887;28;20272;-74
2023/08/19 10:01:54;;;;;;;6.88;6.38;;;29.10;99.90;;;;;;5076860;28;20660;-75
2023/08/19 10:04:20;;;;;;;7.65;6.95;;;29.20;99.90;;;;;;5093967;28;20215;-74
2023/08/19 10:06:48;;;;;;;7.35;6.75;;;29.30;99.90;;;;;;5093680;28;20170;-75
2023/08/19 10:09:19;;;;;;;7.10;6.60;;;29.60;99.90;;;;;;5076493;28;20580;-74
2023/08/19 10:11:48;;;;;;;7.35;6.75;;;29.50;99.90;;;;;;5094757;28;20264;-74
2023/08/19 10:14:15;;;;;;;7.95;7.22;;;29.60;99.90;;;;;;5095104;28;20196;-74
2023/08/19 10:16:46;;;;;;;7.15;6.65;;;29.80;99.90;;;;;;5076805;28;20199;-74
2023/08/19 10:19:16;;;;;;;8.25;6.53;;;29.90;99.90;;;;;;5094888;28;20169;-74
2023/08/19 10:21:45;;;;;;;6.97;6.38;;;30.00;99.90;;;;;;5094414;28;20212;-74
2023/08/19 10:24:11;;;;;;;7.10;6.40;;;30.20;99.90;;;;;;5094222;28;20279;-74
2023/08/19 10:26:38;;;;;;;6.28;5.68;;;30.20;99.90;;;;;;5093796;28;20566;-75
2023/08/19 10:29:05;;;;;;;5.60;5.10;;;30.20;99.90;;;;;;5073998;28;20257;-74
2023/08/19 10:31:32;;;;;;;5.75;5.35;;;30.30;99.90;;;;;;5036476;28;20177;-74
2023/08/19 10:33:57;;;;;;;5.82;5.20;;;30.30;99.90;;;;;;5054199;28;20683;-74
2023/08/19 10:36:29;;;;;;;6.15;5.55;;;30.20;99.90;;;;;;5053708;28;20182;-74
2023/08/19 10:38:56;;;;;;;5.95;5.45;;;30.30;99.90;;;;;;5036199;28;20689;-74
2023/08/19 10:41:35;;;;;;;5.97;5.45;;;30.40;99.90;;;;;;5054068;28;20209;-74
2023/08/19 10:44:12;;;;;;;5.72;5.32;;;30.40;99.90;;;;;;5036172;28;20194;-74
2023/08/19 10:46:40;;;;;;;4.95;4.65;;;30.70;99.90;;;;;;5053130;28;20166;-73
2023/08/19 10:49:07;;;;;;;6.32;5.82;;;31.00;99.90;;;;;;5053352;28;20698;-72
2023/08/19 10:52:00;;;;;;;5.75;5.35;;;31.00;99.90;;;;;;5035495;28;20182;-74
2023/08/19 10:54:41;;;;;;;5.68;5.28;;;31.10;41.70;;;;;;5053429;28;20285;-74
2023/08/19 10:57:23;;;;;;;6.00;5.38;;;31.00;53.50;;;;;;5053312;28;20163;-74
2023/08/19 10:59:57;;;;;;;4.95;4.55;;;31.20;94.50;;;;;;5053460;28;20182;-74
2023/08/19 11:02:23;;;;;;;6.13;5.15;;;31.50;99.90;;;;;;5053384;28;20186;-74
2023/08/19 11:04:51;;;;;;;5.25;4.75;;;31.40;99.90;;;;;;5052749;28;20213;-74
2023/08/19 11:07:17;;;;;;;5.50;5.10;;;31.50;59.50;;;;;;5035476;28;20178;-75
2023/08/19 11:09:44;;;;;;;5.78;5.28;;;31.30;84.40;;;;;;5053438;28;20261;-74
2023/08/19 11:12:21;;;;;;;5.40;5.00;;;31.30;91.90;;;;;;5053273;28;20252;-75
2023/08/19 11:14:48;;;;;;;5.05;4.65;;;31.50;99.90;;;;;;5052810;28;20280;-74
2023/08/19 11:17:14;;;;;;;5.63;5.22;;;31.60;90.30;;;;;;5053159;28;20181;-75
2023/08/19 11:19:40;;;;;;;4.88;4.50;;;31.60;99.90;;;;;;5053328;28;20171;-75
2023/08/19 11:22:05;;;;;;;5.30;4.82;;;31.80;99.90;;;;;;5053124;28;20240;-75
2023/08/19 11:24:32;;;;;;;4.88;4.50;;;31.70;99.30;;;;;;5053104;28;20190;-75
2023/08/19 11:26:58;;;;;;;5.93;4.57;;;31.70;99.90;;;;;;5052523;28;20174;-75
2023/08/19 11:29:24;;;;;;;4.63;4.32;;;31.70;93.30;;;;;;5053266;28;20181;-74
2023/08/19 11:31:50;;;;;;;6.20;4.90;;;31.70;99.70;;;;;;5053144;28;20224;-74
2023/08/19 11:34:15;;;;;;;5.40;4.90;;;31.60;82.80;;;;;;5052985;28;20213;-76
2023/08/19 11:36:43;;;;;;;4.57;4.18;;;31.80;32.10;;;;;;5052423;28;20265;-74
2023/08/19 11:39:10;;;;;;;4.78;4.38;;;31.90;30.00;;;;;;5053042;28;20225;-75
2023/08/19 11:41:36;;;;;;;4.95;4.55;;;31.90;16.30;;;;;;5052972;28;20198;-75
2023/08/19 11:44:03;;;;;;;4.60;4.30;;;31.90;46.00;;;;;;5052885;28;20192;-75
2023/08/19 11:46:33;;;;;;;4.95;4.55;;;31.90;45.30;;;;;;5052601;28;20609;-74
2023/08/19 11:49:03;;;;;;;5.10;4.70;;;31.80;71.40;;;;;;5053179;28;20181;-75
2023/08/19 11:51:29;;;;;;;5.00;4.60;;;31.80;63.10;;;;;;5053100;28;20195;-74
2023/08/19 11:54:01;;;;;;;4.68;4.28;;;31.70;92.60;;;;;;5034802;28;20202;-74
2023/08/19 11:56:27;;;;;;;4.45;4.07;;;31.60;50.00;;;;;;5052355;28;20677;-75
2023/08/19 11:58:54;;;;;;;4.97;4.57;;;31.60;60.40;;;;;;5052113;28;20269;-75
2023/08/19 12:01:24;;;;;;;5.15;4.75;;;31.80;1.00;;;;;;5054334;28;20292;-74
2023/08/19 12:03:52;;;;;;;5.18;4.68;;;31.90;1.00;;;;;;5055040;28;20269;-76
2023/08/19 12:06:18;;;;;;;5.10;4.53;;;32.00;45.20;;;;;;5054742;28;20177;-75
2023/08/19 12:08:47;;;;;;;5.45;4.28;;;32.20;37.90;;;;;;5055153;28;20173;-75
2023/08/19 12:11:13;;;;;;;5.40;4.05;;;32.20;10.30;;;;;;5055369;28;20170;-74
2023/08/19 12:13:38;;;;;;;4.78;4.32;;;32.30;3.90;;;;;;5054877;28;20252;-75
2023/08/19 12:16:06;;;;;;;5.00;4.50;;;32.20;1.00;;;;;;5054837;28;20256;-74
2023/08/19 12:18:33;;;;;;;5.03;4.25;;;32.10;1.00;;;;;;5055090;28;20257;-74
2023/08/19 12:21:02;;;;;;;5.75;4.80;;;32.10;1.00;;;;;;5055146;28;20225;-75
2023/08/19 12:23:28;;;;;;;4.47;4.00;;;32.00;1.00;;;;;;5054811;28;20186;-75
2023/08/19 12:25:56;;;;;;;4.50;4.20;;;31.90;1.00;;;;;;5054341;28;20181;-75
2023/08/19 12:28:23;;;;;;;4.88;4.30;;;32.10;1.00;;;;;;5037148;28;20170;-75
2023/08/19 12:30:50;;;;;;;4.47;4.05;;;32.20;1.00;;;;;;5054867;28;20227;-75
2023/08/19 12:33:18;;;;;;;4.63;4.20;;;32.10;1.00;;;;;;5054743;28;20194;-75
2023/08/19 12:35:46;;;;;;;6.15;4.40;;;32.10;1.00;;;;;;5036185;28;20606;-75
2023/08/19 12:38:18;;;;;;;4.47;4.13;;;32.10;1.00;;;;;;5054850;28;20170;-74
2023/08/19 12:40:45;;;;;;;4.63;4.22;;;32.20;1.00;;;;;;5054678;28;20582;-75
2023/08/19 12:43:12;;;;;;;4.65;4.25;;;32.30;1.00;;;;;;5054504;28;20193;-75
2023/08/19 12:45:38;;;;;;;4.70;4.30;;;32.30;1.00;;;;;;5054115;28;20173;-74
2023/08/19 12:48:04;;;;;;;5.07;4.00;;;32.50;1.00;;;;;;5054627;28;20629;-75
2023/08/19 12:50:30;;;;;;;4.82;4.15;;;32.60;1.00;;;;;;5054554;28;20182;-75